createdAt,value
2022-10-18T00:03:24.843Z,52
2022-10-18T00:13:24.908Z,52
2022-10-18T00:23:24.862Z,52
2022-10-18T00:33:25.233Z,52
2022-10-18T00:43:25.093Z,52
2022-10-18T00:53:25.168Z,52
2022-10-18T01:03:24.824Z,52
2022-10-18T01:13:25.766Z,52
2022-10-18T01:23:25.042Z,52
2022-10-18T01:33:24.904Z,52
2022-10-18T01:43:25.027Z,52
2022-10-18T01:53:24.912Z,52
2022-10-18T02:03:25.021Z,52
2022-10-18T02:13:24.904Z,52
2022-10-18T02:23:25.025Z,52.5
2022-10-18T02:33:24.882Z,54
2022-10-18T02:43:25.015Z,53
2022-10-18T02:53:24.910Z,52.5
2022-10-18T03:03:25.039Z,52.5
2022-10-18T03:13:25.113Z,52.5
2022-10-18T03:23:25.032Z,52.5
2022-10-18T03:33:25.114Z,54
2022-10-18T03:43:25.044Z,54
2022-10-18T03:53:25.108Z,54
2022-10-18T04:03:25.021Z,54
2022-10-18T04:13:25.080Z,54
2022-10-18T04:23:25.013Z,54
2022-10-18T04:33:25.097Z,54
2022-10-18T04:43:25.228Z,54
2022-10-18T04:53:25.086Z,54
2022-10-18T05:03:25.205Z,54
2022-10-18T05:13:25.090Z,54
2022-10-18T05:23:25.222Z,54
2022-10-18T05:33:25.077Z,54
2022-10-18T05:43:25.205Z,54
2022-10-18T05:53:36.066Z,54
2022-10-18T06:03:25.209Z,54
2022-10-18T06:13:25.299Z,54
2022-10-18T06:23:25.216Z,54
2022-10-18T06:33:25.289Z,55.5
2022-10-18T06:43:25.192Z,54.5
2022-10-18T06:53:25.269Z,56
2022-10-18T07:03:25.218Z,56
2022-10-18T07:13:32.254Z,56
2022-10-18T07:23:25.188Z,54.5
2022-10-18T07:33:25.291Z,54.5
2022-10-18T07:43:25.405Z,54.5
2022-10-18T07:53:25.268Z,54.5
2022-10-18T08:03:25.396Z,54.5
2022-10-18T08:13:25.256Z,49
2022-10-18T08:23:25.370Z,45.5
2022-10-18T08:33:25.257Z,46
2022-10-18T08:43:25.420Z,44.5
2022-10-18T08:53:25.488Z,47
2022-10-18T09:03:25.455Z,46.5
2022-10-18T09:13:25.474Z,45.5
2022-10-18T09:23:25.712Z,43.5
2022-10-18T09:33:25.796Z,49.5
2022-10-18T09:43:25.631Z,52
2022-10-18T09:53:25.498Z,52
2022-10-18T10:03:25.806Z,52
2022-10-18T10:13:25.788Z,52
2022-10-18T10:23:25.672Z,52
2022-10-18T10:33:25.786Z,52
2022-10-18T10:43:36.857Z,52
2022-10-18T10:53:25.723Z,51
2022-10-18T11:03:29.721Z,50.5
2022-10-18T11:13:25.480Z,50.5
2022-10-18T11:23:25.607Z,50.5
2022-10-18T11:33:33.774Z,50.5
2022-10-18T11:43:30.192Z,50.5
2022-10-18T11:53:25.478Z,50.5
2022-10-18T12:03:25.600Z,50.5
2022-10-18T12:13:25.676Z,50.5
2022-10-18T12:23:25.573Z,50.5
2022-10-18T12:33:28.495Z,50.5
2022-10-18T12:43:25.593Z,50.5
2022-10-18T12:53:25.651Z,50.5
2022-10-18T13:03:25.570Z,50.5
2022-10-18T13:13:39.012Z,50.5
2022-10-18T13:23:25.711Z,49.5
2022-10-18T13:33:25.587Z,50
2022-10-18T13:43:25.731Z,50
2022-10-18T13:53:25.626Z,50
2022-10-18T14:03:51.759Z,50
2022-10-18T14:13:25.701Z,50
2022-10-18T14:23:25.619Z,50
2022-10-18T14:33:25.822Z,50
2022-10-18T14:43:25.805Z,50
2022-10-18T14:53:25.703Z,50
2022-10-18T15:03:25.874Z,50
2022-10-18T15:13:25.718Z,50
2022-10-18T15:23:25.847Z,50
2022-10-18T15:33:25.791Z,50
2022-10-18T15:43:25.699Z,50
2022-10-18T15:53:25.975Z,50
2022-10-18T16:03:26.132Z,50
2022-10-18T16:13:25.987Z,50
2022-10-18T16:23:26.043Z,50
2022-10-18T16:33:26.097Z,50
2022-10-18T16:43:26.039Z,50
2022-10-18T16:53:26.159Z,50
2022-10-18T17:03:26.055Z,50
2022-10-18T17:13:26.125Z,50
2022-10-18T17:23:26.030Z,52
2022-10-18T17:33:26.374Z,52
2022-10-18T17:43:27.870Z,52
2022-10-18T17:53:26.012Z,52
2022-10-18T18:03:26.223Z,52
2022-10-18T18:13:26.173Z,52
2022-10-18T18:23:26.103Z,52
2022-10-18T18:33:25.912Z,52
2022-10-18T18:43:26.272Z,52
2022-10-18T18:53:28.478Z,52
2022-10-18T19:03:25.991Z,52
2022-10-18T19:13:25.895Z,52
2022-10-18T19:33:35.452Z,53
2022-10-18T19:43:26.228Z,54
2022-10-18T19:53:26.250Z,54
2022-10-18T20:03:26.334Z,54
2022-10-18T20:13:26.239Z,54
2022-10-18T20:23:26.340Z,54
2022-10-18T20:33:26.366Z,54
2022-10-18T20:43:26.185Z,54
2022-10-18T20:53:26.203Z,54
2022-10-18T21:03:26.105Z,54
2022-10-18T21:13:26.416Z,54
2022-10-18T21:23:26.316Z,54
2022-10-18T21:33:26.446Z,54
2022-10-18T21:43:26.103Z,54
2022-10-18T21:53:26.142Z,54
2022-10-18T22:03:26.096Z,54
2022-10-18T22:13:26.198Z,54
2022-10-18T22:23:26.280Z,54
2022-10-18T22:33:26.203Z,54
2022-10-18T22:43:26.263Z,54
2022-10-18T22:53:26.135Z,54
2022-10-18T23:03:26.294Z,54
2022-10-18T23:13:26.180Z,54
2022-10-18T23:23:26.264Z,54
2022-10-18T23:33:26.161Z,54
2022-10-18T23:43:26.302Z,54
2022-10-18T23:53:26.353Z,54
